Time;durP1;ratioP1;P1;durP2;ratioP2;P2;SDS_P1;SDS_P2;PMS_P1;PMS_P2;Temp;Humidity;BMP_temperature;BMP_pressure;BME280_temperature;BME280_humidity;BME280_pressure;Samples;Min_cycle;Max_cycle;Signal;HPM_P1;HPM_P2
2023/12/23 00:00:33;;;;;;;16.50;2.72;;;5.50;99.90;;;;;;5079846;28;20127;-44
2023/12/23 00:03:00;;;;;;;16.77;2.33;;;5.50;99.90;;;;;;5079094;28;20039;-45
2023/12/23 00:05:26;;;;;;;16.50;2.30;;;5.40;99.90;;;;;;5080451;28;20032;-47
2023/12/23 00:07:51;;;;;;;10.88;2.65;;;5.40;99.90;;;;;;5078443;28;21323;-46
2023/12/23 00:10:17;;;;;;;12.60;2.00;;;5.40;99.90;;;;;;5078670;28;20106;-45
2023/12/23 00:12:43;;;;;;;17.65;2.20;;;5.40;99.90;;;;;;5079396;28;20181;-44
2023/12/23 00:15:09;;;;;;;16.58;2.45;;;5.50;99.90;;;;;;5079509;28;20327;-44
2023/12/23 00:17:34;;;;;;;15.00;2.40;;;5.50;99.90;;;;;;5077068;28;20032;-46
2023/12/23 00:20:00;;;;;;;18.00;2.83;;;5.50;99.90;;;;;;5081003;28;20032;-44
2023/12/23 00:22:26;;;;;;;13.05;2.30;;;5.50;99.90;;;;;;5078034;28;20485;-45
2023/12/23 00:24:51;;;;;;;12.70;2.22;;;5.60;99.90;;;;;;5079423;28;20626;-44
2023/12/23 00:27:17;;;;;;;12.88;2.67;;;5.60;99.90;;;;;;5078446;28;20044;-45
2023/12/23 00:29:43;;;;;;;14.88;2.50;;;5.60;99.90;;;;;;5080550;28;20123;-46
2023/12/23 00:32:08;;;;;;;11.52;2.47;;;5.60;99.90;;;;;;5080597;28;20047;-46
2023/12/23 00:34:34;;;;;;;13.40;2.35;;;5.60;99.90;;;;;;5065208;28;20093;-44
2023/12/23 00:36:59;;;;;;;15.88;2.60;;;5.60;99.90;;;;;;5087767;28;20134;-46
2023/12/23 00:39:25;;;;;;;14.88;2.50;;;5.50;99.90;;;;;;5083823;28;20048;-44
2023/12/23 00:41:51;;;;;;;15.68;2.67;;;5.60;99.90;;;;;;5086708;28;20043;-45
2023/12/23 00:44:16;;;;;;;17.83;2.80;;;5.60;99.90;;;;;;5072518;28;20044;-46
2023/12/23 00:46:42;;;;;;;19.55;3.17;;;5.60;99.90;;;;;;5087509;28;20035;-45
2023/12/23 00:49:07;;;;;;;13.43;2.47;;;5.60;99.90;;;;;;5072786;28;20044;-46
2023/12/23 00:51:33;;;;;;;18.65;2.58;;;5.60;99.90;;;;;;5083153;28;20866;-45
2023/12/23 00:53:59;;;;;;;18.08;3.00;;;5.60;99.90;;;;;;5082005;28;20044;-46
2023/12/23 00:56:25;;;;;;;17.60;2.75;;;5.70;99.90;;;;;;5081866;28;20044;-45
2023/12/23 00:58:50;;;;;;;15.27;2.70;;;5.70;99.90;;;;;;5083551;28;20075;-46
2023/12/23 01:01:16;;;;;;;15.25;2.60;;;5.70;99.90;;;;;;5084093;28;20048;-49
2023/12/23 01:03:43;;;;;;;12.90;1.80;;;5.70;99.90;;;;;;5083661;28;20036;-45
2023/12/23 01:06:09;;;;;;;15.75;2.17;;;5.70;99.90;;;;;;5080921;28;20052;-45
2023/12/23 01:08:34;;;;;;;14.90;2.28;;;5.70;99.90;;;;;;5081372;28;20487;-46
2023/12/23 01:11:00;;;;;;;19.05;2.63;;;5.70;99.90;;;;;;5078896;28;20032;-47
2023/12/23 01:13:26;;;;;;;15.60;2.50;;;5.70;99.90;;;;;;5084014;28;20048;-46
2023/12/23 01:15:52;;;;;;;15.63;2.80;;;5.70;99.90;;;;;;5064317;28;20059;-46
2023/12/23 01:18:17;;;;;;;13.52;2.40;;;5.70;99.90;;;;;;5080858;28;20098;-45
2023/12/23 01:20:43;;;;;;;14.52;2.75;;;5.80;99.90;;;;;;5083879;28;20838;-46
2023/12/23 01:23:09;;;;;;;19.30;2.80;;;5.80;99.90;;;;;;5066279;28;20059;-47
2023/12/23 01:25:35;;;;;;;13.48;2.20;;;5.80;99.90;;;;;;5082140;28;20032;-45
2023/12/23 01:28:04;;;;;;;10.02;1.77;;;5.80;99.90;;;;;;5044568;28;20484;-47
2023/12/23 01:30:36;;;;;;;15.88;2.47;;;5.90;99.90;;;;;;5083484;28;20049;-46
2023/12/23 01:33:02;;;;;;;13.93;2.42;;;5.90;99.90;;;;;;5085300;28;20036;-47
2023/12/23 01:35:28;;;;;;;18.88;2.70;;;6.00;99.90;;;;;;5091560;28;20684;-46
2023/12/23 01:37:54;;;;;;;11.93;1.85;;;5.90;99.90;;;;;;5090422;28;20040;-46
2023/12/23 01:40:19;;;;;;;11.73;1.95;;;6.00;99.90;;;;;;5094041;28;20048;-46
2023/12/23 01:42:45;;;;;;;9.73;1.95;;;5.90;99.90;;;;;;5080077;28;20466;-46
2023/12/23 01:45:11;;;;;;;18.55;3.13;;;5.90;99.90;;;;;;5085163;28;20067;-45
2023/12/23 01:47:40;;;;;;;11.35;2.50;;;5.90;99.90;;;;;;5083935;28;20046;-45
2023/12/23 01:50:08;;;;;;;12.57;2.08;;;6.00;99.90;;;;;;5083493;28;20039;-46
2023/12/23 01:52:34;;;;;;;9.32;1.88;;;5.90;99.90;;;;;;5081236;28;20603;-46
2023/12/23 01:55:00;;;;;;;9.82;1.85;;;5.90;99.90;;;;;;5081218;28;20051;-46
2023/12/23 01:57:25;;;;;;;12.85;2.15;;;5.90;99.90;;;;;;5083288;28;20036;-46
2023/12/23 01:59:51;;;;;;;11.02;1.77;;;5.90;99.90;;;;;;5079767;28;20055;-45
2023/12/23 02:02:17;;;;;;;10.10;1.67;;;5.80;99.90;;;;;;5082463;28;20043;-46
2023/12/23 02:04:43;;;;;;;14.85;2.28;;;5.80;99.90;;;;;;5085099;28;20055;-46
2023/12/23 02:07:08;;;;;;;11.98;2.25;;;5.80;99.90;;;;;;5082016;28;20043;-47
2023/12/23 02:09:34;;;;;;;11.30;2.33;;;5.80;99.90;;;;;;5078516;28;20047;-48
2023/12/23 02:12:03;;;;;;;10.07;2.10;;;5.80;99.90;;;;;;5080972;28;20028;-46
2023/12/23 02:14:54;;;;;;;10.23;1.70;;;5.90;99.90;;;;;;5083026;28;20036;-48
2023/12/23 02:17:20;;;;;;;12.40;2.25;;;5.90;99.90;;;;;;5078614;28;20040;-47
2023/12/23 02:19:46;;;;;;;14.80;2.00;;;5.90;99.90;;;;;;5078931;28;20481;-46
2023/12/23 02:22:11;;;;;;;13.43;2.15;;;5.90;99.90;;;;;;5061904;28;20566;-46
2023/12/23 02:24:37;;;;;;;10.75;1.77;;;5.90;99.90;;;;;;5080683;28;20047;-46
2023/12/23 02:27:11;;;;;;;10.43;2.15;;;6.00;99.90;;;;;;5080758;28;20178;-46
2023/12/23 02:29:39;;;;;;;11.02;1.75;;;6.00;99.90;;;;;;5077815;28;20522;-47
2023/12/23 02:32:07;;;;;;;11.70;1.52;;;6.10;99.90;;;;;;5079113;28;20059;-47
2023/12/23 02:34:33;;;;;;;12.70;1.92;;;6.00;99.90;;;;;;5078942;28;20139;-47
2023/12/23 02:36:59;;;;;;;10.32;1.88;;;6.00;99.90;;;;;;5080163;28;20494;-47
2023/12/23 02:39:25;;;;;;;12.30;1.70;;;6.00;99.90;;;;;;5063440;28;20039;-45
2023/12/23 02:41:50;;;;;;;11.10;1.70;;;6.10;99.90;;;;;;5078705;28;20044;-46
2023/12/23 02:44:16;;;;;;;8.38;1.45;;;6.10;99.90;;;;;;5076608;28;20648;-46
2023/12/23 02:46:41;;;;;;;13.45;1.65;;;6.00;99.90;;;;;;5079047;28;20039;-47
2023/12/23 02:49:07;;;;;;;12.25;2.22;;;6.10;99.90;;;;;;5080519;28;20039;-49
2023/12/23 02:51:33;;;;;;;11.85;1.77;;;6.10;99.90;;;;;;5079319;28;20397;-49
2023/12/23 02:53:58;;;;;;;13.07;1.50;;;6.10;99.90;;;;;;5081346;28;20040;-46
2023/12/23 02:56:24;;;;;;;7.57;1.20;;;6.00;99.90;;;;;;5078167;28;21302;-47
2023/12/23 02:58:49;;;;;;;8.23;1.55;;;6.00;99.90;;;;;;5080855;28;20105;-46
2023/12/23 03:01:19;;;;;;;11.23;1.58;;;5.90;99.90;;;;;;5084449;28;20036;-49
2023/12/23 03:03:45;;;;;;;13.05;1.85;;;5.90;99.90;;;;;;5083405;28;20047;-45
2023/12/23 03:06:14;;;;;;;11.90;1.60;;;5.90;99.90;;;;;;5082137;28;20070;-47
2023/12/23 03:08:40;;;;;;;10.00;1.85;;;5.80;99.90;;;;;;5082116;28;20055;-47
2023/12/23 03:11:06;;;;;;;13.27;1.70;;;5.80;99.90;;;;;;5078420;28;20047;-46
2023/12/23 03:13:31;;;;;;;9.95;1.20;;;5.80;99.90;;;;;;5081295;28;20036;-47
2023/12/23 03:15:57;;;;;;;9.23;1.45;;;5.80;99.90;;;;;;5079898;28;20062;-47
2023/12/23 03:18:22;;;;;;;8.77;1.42;;;5.80;99.90;;;;;;5079284;28;20153;-50
2023/12/23 03:20:49;;;;;;;9.77;1.55;;;5.70;99.90;;;;;;5077929;28;20727;-46
2023/12/23 03:23:15;;;;;;;7.23;1.27;;;5.70;99.90;;;;;;5079226;28;20421;-45
2023/12/23 03:25:41;;;;;;;13.30;1.48;;;5.70;99.90;;;;;;5076971;28;20036;-47
2023/12/23 03:28:06;;;;;;;6.38;1.10;;;5.70;99.90;;;;;;5080290;28;20042;-45
2023/12/23 03:30:32;;;;;;;8.52;1.45;;;5.70;99.90;;;;;;5076380;28;20047;-45
2023/12/23 03:32:57;;;;;;;12.68;1.67;;;5.70;99.90;;;;;;5079692;28;20040;-46
2023/12/23 03:35:23;;;;;;;7.53;2.00;;;5.70;99.90;;;;;;5079985;28;20048;-45
2023/12/23 03:37:49;;;;;;;8.13;1.60;;;5.70;99.90;;;;;;5078888;28;20052;-46
2023/12/23 03:40:14;;;;;;;8.38;1.42;;;5.70;99.90;;;;;;5077068;28;20059;-45
2023/12/23 03:42:40;;;;;;;11.90;1.95;;;5.70;99.90;;;;;;5062067;28;20036;-48
2023/12/23 03:45:07;;;;;;;8.50;1.95;;;5.70;99.90;;;;;;5080643;28;20081;-46
2023/12/23 03:47:34;;;;;;;10.75;1.83;;;5.70;99.90;;;;;;5077238;28;20412;-47
2023/12/23 03:50:00;;;;;;;6.15;1.60;;;5.70;99.90;;;;;;5081890;28;20393;-46
2023/12/23 03:52:26;;;;;;;5.75;1.40;;;5.70;99.90;;;;;;5076224;28;20170;-46
2023/12/23 03:54:51;;;;;;;4.35;1.25;;;5.70;99.90;;;;;;5077394;28;20063;-46
2023/12/23 03:57:17;;;;;;;9.30;1.55;;;5.70;99.90;;;;;;5080042;28;20064;-46
2023/12/23 03:59:42;;;;;;;4.53;1.08;;;5.70;99.90;;;;;;5078254;28;20205;-46
2023/12/23 04:02:08;;;;;;;7.18;1.67;;;5.70;99.90;;;;;;5078933;28;20124;-46
2023/12/23 04:04:39;;;;;;;5.35;1.30;;;5.70;99.90;;;;;;5079051;28;20040;-46
2023/12/23 04:07:04;;;;;;;3.85;1.20;;;5.70;99.90;;;;;;5078221;28;20044;-45
2023/12/23 04:09:30;;;;;;;6.95;1.52;;;5.70;99.90;;;;;;5085721;28;20050;-47
2023/12/23 04:11:56;;;;;;;6.30;1.42;;;5.80;99.90;;;;;;5085317;28;20036;-46
2023/12/23 04:14:21;;;;;;;7.75;1.08;;;5.70;99.90;;;;;;5093003;28;20101;-45
2023/12/23 04:16:47;;;;;;;6.47;1.50;;;5.80;99.90;;;;;;5069577;28;20123;-46
2023/12/23 04:19:13;;;;;;;7.57;1.52;;;5.80;99.90;;;;;;5081422;28;20699;-47
2023/12/23 04:21:39;;;;;;;5.60;1.50;;;5.70;99.90;;;;;;5081857;28;20036;-45
2023/12/23 04:24:05;;;;;;;5.35;1.17;;;5.70;99.90;;;;;;5084375;28;20036;-45
2023/12/23 04:26:32;;;;;;;8.23;1.27;;;5.70;99.90;;;;;;5086239;28;20040;-46
2023/12/23 04:28:58;;;;;;;6.33;1.57;;;5.70;99.90;;;;;;5088491;28;20400;-44
2023/12/23 04:31:24;;;;;;;8.10;1.38;;;5.70;99.90;;;;;;5090572;28;20036;-45
2023/12/23 04:33:49;;;;;;;5.80;1.10;;;5.70;99.90;;;;;;5090093;28;20489;-45
2023/12/23 04:36:17;;;;;;;5.28;0.80;;;5.70;99.90;;;;;;5087503;28;20047;-45
2023/12/23 04:38:43;;;;;;;4.28;1.02;;;5.70;99.90;;;;;;5084654;28;20429;-45
2023/12/23 04:41:08;;;;;;;4.72;0.80;;;5.70;99.90;;;;;;5087207;28;20044;-46
2023/12/23 04:43:34;;;;;;;1.98;0.77;;;5.80;99.90;;;;;;5085869;28;20067;-46
2023/12/23 04:46:00;;;;;;;2.50;1.15;;;5.80;99.90;;;;;;5085725;28;20439;-45
2023/12/23 04:48:26;;;;;;;2.25;0.70;;;5.70;99.90;;;;;;5085656;28;21252;-45
2023/12/23 04:50:52;;;;;;;3.75;1.10;;;5.70;99.90;;;;;;5087285;28;20401;-44
2023/12/23 04:53:19;;;;;;;3.60;1.00;;;5.70;99.90;;;;;;5089261;28;20055;-45
2023/12/23 04:55:44;;;;;;;2.60;0.80;;;5.80;99.90;;;;;;5088218;28;20044;-44
2023/12/23 04:58:10;;;;;;;4.70;1.15;;;5.70;99.90;;;;;;5086357;28;20040;-45
2023/12/23 05:00:36;;;;;;;1.95;0.93;;;5.80;99.90;;;;;;5087594;28;20082;-45
2023/12/23 05:03:02;;;;;;;2.38;1.05;;;5.80;99.90;;;;;;5071644;28;20112;-45
2023/12/23 05:05:27;;;;;;;1.80;1.08;;;5.70;99.90;;;;;;5085318;28;20036;-45
2023/12/23 05:07:53;;;;;;;4.25;0.90;;;5.80;99.90;;;;;;5081044;28;20481;-47
2023/12/23 05:10:18;;;;;;;1.92;0.80;;;5.80;99.90;;;;;;5087752;28;20134;-45
2023/12/23 05:12:44;;;;;;;2.58;1.00;;;5.80;99.90;;;;;;5087139;28;20044;-46
2023/12/23 05:15:10;;;;;;;2.47;0.93;;;5.80;99.90;;;;;;5082315;28;20428;-44
2023/12/23 05:17:36;;;;;;;1.48;0.90;;;5.80;99.90;;;;;;5095005;28;20044;-46
2023/12/23 05:20:02;;;;;;;1.10;1.00;;;5.80;99.90;;;;;;5084232;28;20545;-44
2023/12/23 05:22:27;;;;;;;3.47;1.10;;;5.80;99.90;;;;;;5080603;28;21845;-45
2023/12/23 05:24:53;;;;;;;2.45;1.20;;;5.90;99.90;;;;;;5090780;28;20173;-49
2023/12/23 05:27:18;;;;;;;2.95;1.20;;;5.80;99.90;;;;;;5084471;28;20366;-45
2023/12/23 05:29:45;;;;;;;2.72;1.77;;;6.00;99.90;;;;;;5086444;28;20048;-46
2023/12/23 05:32:11;;;;;;;7.10;2.65;;;6.10;99.90;;;;;;5083998;28;20062;-45
2023/12/23 05:34:37;;;;;;;8.15;3.33;;;6.30;99.90;;;;;;5085451;28;20036;-46
2023/12/23 05:37:02;;;;;;;7.25;4.05;;;6.40;99.90;;;;;;5082661;28;20075;-45
2023/12/23 05:39:28;;;;;;;17.92;4.72;;;6.80;99.90;;;;;;5090810;28;20048;-45
2023/12/23 05:41:54;;;;;;;12.63;4.18;;;7.10;99.90;;;;;;5088452;28;20035;-45
2023/12/23 05:44:19;;;;;;;13.57;4.80;;;7.30;99.90;;;;;;5087766;28;20032;-45
2023/12/23 05:46:45;;;;;;;16.40;4.97;;;7.60;99.90;;;;;;5066893;28;20488;-46
2023/12/23 05:49:11;;;;;;;15.70;5.00;;;7.80;99.90;;;;;;5084802;28;20029;-47
2023/12/23 05:51:37;;;;;;;13.68;4.47;;;7.90;99.90;;;;;;5085002;28;20135;-45
2023/12/23 05:54:03;;;;;;;10.48;3.65;;;7.80;99.90;;;;;;5083966;28;20119;-45
2023/12/23 05:56:29;;;;;;;11.73;3.70;;;;;;;;;;5084282;28;20048;-48
2023/12/23 05:58:56;;;;;;;10.52;3.20;;;8.00;99.90;;;;;;5087761;28;20125;-46
2023/12/23 06:01:22;;;;;;;16.03;3.50;;;8.10;99.90;;;;;;5086356;28;20063;-44
2023/12/23 06:03:48;;;;;;;8.43;3.33;;;8.20;99.90;;;;;;5081852;28;20059;-46
2023/12/23 06:06:13;;;;;;;13.38;3.50;;;8.20;99.90;;;;;;5078473;28;20040;-45
2023/12/23 06:08:39;;;;;;;14.18;3.83;;;8.20;99.90;;;;;;5062268;28;20374;-45
2023/12/23 06:11:07;;;;;;;15.40;3.83;;;8.20;99.90;;;;;;5079592;28;20044;-46
2023/12/23 06:13:33;;;;;;;12.13;3.67;;;8.20;99.90;;;;;;5080567;28;20055;-47
2023/12/23 06:16:05;;;;;;;11.52;3.55;;;8.30;99.90;;;;;;5078875;28;20036;-48
2023/12/23 06:18:31;;;;;;;15.00;3.85;;;8.30;99.90;;;;;;5079223;28;20049;-47
2023/12/23 06:20:57;;;;;;;20.10;4.40;;;8.30;99.90;;;;;;5085809;28;20700;-46
2023/12/23 06:23:23;;;;;;;14.32;4.28;;;8.40;99.90;;;;;;5080034;28;20032;-46
2023/12/23 06:25:48;;;;;;;16.80;4.50;;;8.30;99.90;;;;;;5080223;28;20035;-46
2023/12/23 06:28:14;;;;;;;22.98;5.05;;;8.30;99.90;;;;;;5078357;28;20176;-47
2023/12/23 06:30:39;;;;;;;28.00;5.35;;;8.40;99.90;;;;;;5080038;28;20093;-47
2023/12/23 06:33:05;;;;;;;26.92;5.53;;;8.40;99.90;;;;;;5079014;28;20059;-46
2023/12/23 06:35:30;;;;;;;16.98;4.68;;;8.40;99.90;;;;;;5079888;28;21650;-49
2023/12/23 06:37:56;;;;;;;20.15;5.05;;;8.40;99.90;;;;;;5079834;28;20040;-47
2023/12/23 06:40:21;;;;;;;23.60;4.68;;;8.40;99.90;;;;;;5078344;28;20402;-46
2023/12/23 06:42:47;;;;;;;18.48;4.63;;;8.50;99.90;;;;;;5084639;28;20048;-49
2023/12/23 06:45:13;;;;;;;19.50;4.70;;;8.40;99.90;;;;;;5080546;28;20127;-46
2023/12/23 06:47:39;;;;;;;20.95;4.10;;;8.40;99.90;;;;;;5079679;28;20044;-46
2023/12/23 06:50:04;;;;;;;18.73;4.45;;;8.50;99.90;;;;;;5077489;28;20036;-47
2023/12/23 06:52:30;;;;;;;23.20;4.43;;;8.60;99.90;;;;;;5078438;28;20059;-47
2023/12/23 06:54:56;;;;;;;21.58;4.45;;;8.50;99.90;;;;;;5079171;28;20572;-45
2023/12/23 06:57:21;;;;;;;19.70;4.20;;;8.60;99.90;;;;;;5079725;28;20040;-48
2023/12/23 06:59:47;;;;;;;23.15;4.15;;;8.50;99.90;;;;;;5079747;28;20481;-46
2023/12/23 07:02:13;;;;;;;18.23;4.30;;;8.40;99.90;;;;;;5079831;28;20139;-46
2023/12/23 07:04:39;;;;;;;21.92;4.30;;;8.50;99.90;;;;;;5082638;28;20047;-46
2023/12/23 07:07:06;;;;;;;15.90;3.92;;;8.40;99.90;;;;;;5083732;28;20040;-47
2023/12/23 07:09:31;;;;;;;19.33;4.45;;;8.50;99.90;;;;;;5079798;28;20054;-47
2023/12/23 07:11:57;;;;;;;14.30;3.70;;;8.50;99.90;;;;;;5080479;28;20036;-45
2023/12/23 07:14:23;;;;;;;15.15;3.85;;;8.60;99.90;;;;;;5080267;28;20040;-46
2023/12/23 07:16:49;;;;;;;23.55;5.28;;;8.50;99.90;;;;;;5079868;28;20162;-46
2023/12/23 07:19:16;;;;;;;18.83;4.45;;;8.50;99.90;;;;;;5077593;28;20519;-47
2023/12/23 07:21:42;;;;;;;21.95;4.03;;;8.60;99.90;;;;;;5079241;28;20405;-46
2023/12/23 07:24:07;;;;;;;22.17;4.13;;;8.60;99.90;;;;;;5079365;28;20059;-48
2023/12/23 07:26:35;;;;;;;20.42;4.03;;;8.50;99.90;;;;;;5079859;28;20089;-46
2023/12/23 07:29:02;;;;;;;20.35;4.00;;;8.60;99.90;;;;;;5045103;28;20051;-46
2023/12/23 07:31:32;;;;;;;16.00;3.92;;;8.70;99.90;;;;;;5077599;28;20485;-48
2023/12/23 07:33:58;;;;;;;17.08;4.38;;;8.60;99.90;;;;;;5061751;28;20123;-47
2023/12/23 07:36:24;;;;;;;16.42;4.07;;;8.70;99.90;;;;;;5080202;28;20055;-46
2023/12/23 07:38:49;;;;;;;20.00;4.55;;;8.80;99.90;;;;;;5079165;28;20048;-46
2023/12/23 07:41:15;;;;;;;20.45;4.70;;;8.70;99.90;;;;;;5081331;28;20477;-45
2023/12/23 07:43:41;;;;;;;32.00;5.53;;;8.70;99.90;;;;;;5084490;28;20028;-48
2023/12/23 07:46:07;;;;;;;23.80;4.65;;;8.70;99.90;;;;;;5083228;28;20055;-46
2023/12/23 07:48:32;;;;;;;23.27;4.47;;;8.70;99.90;;;;;;5080121;28;20124;-48
2023/12/23 07:50:58;;;;;;;21.90;4.78;;;8.70;99.90;;;;;;5084590;28;20032;-45
2023/12/23 07:53:23;;;;;;;25.80;4.50;;;8.80;99.90;;;;;;5083115;28;20040;-45
2023/12/23 07:55:49;;;;;;;23.45;4.20;;;8.80;99.90;;;;;;5083445;28;20127;-46
2023/12/23 07:58:15;;;;;;;22.63;4.35;;;8.80;99.90;;;;;;5078613;28;20456;-47
2023/12/23 08:00:40;;;;;;;25.27;4.95;;;8.80;99.90;;;;;;5080969;28;20050;-47
2023/12/23 08:03:06;;;;;;;15.85;3.88;;;8.90;99.90;;;;;;5081323;28;20118;-47
2023/12/23 08:05:34;;;;;;;19.75;4.47;;;8.80;99.90;;;;;;5083145;28;20098;-47
2023/12/23 08:08:00;;;;;;;;;;;8.80;99.90;;;;;;5081253;28;20044;-46
2023/12/23 08:10:25;;;;;;;21.90;4.50;;;8.90;99.90;;;;;;5079850;28;19932;-45
2023/12/23 08:12:51;;;;;;;27.77;4.57;;;8.90;99.90;;;;;;5081823;28;20048;-47
2023/12/23 08:15:16;;;;;;;22.23;4.18;;;8.90;99.90;;;;;;5084926;28;20048;-45
2023/12/23 08:17:42;;;;;;;25.90;4.78;;;8.90;99.90;;;;;;5083936;28;20131;-46
2023/12/23 08:20:08;;;;;;;20.90;4.40;;;8.80;99.90;;;;;;5087395;28;20047;-45
2023/12/23 08:22:34;;;;;;;18.15;4.22;;;8.80;99.90;;;;;;5083444;28;20066;-46
2023/12/23 08:25:00;;;;;;;21.95;4.70;;;8.90;99.90;;;;;;5069959;28;20036;-46
2023/12/23 08:27:25;;;;;;;21.23;4.68;;;8.90;99.90;;;;;;5088053;28;20043;-46
2023/12/23 08:29:51;;;;;;;20.67;4.25;;;8.80;99.90;;;;;;5092337;28;20081;-48
2023/12/23 08:32:16;;;;;;;19.75;4.55;;;8.90;99.90;;;;;;5090590;28;20036;-46
2023/12/23 08:34:46;;;;;;;20.98;4.15;;;8.90;99.90;;;;;;5090363;28;20042;-45
2023/12/23 08:37:11;;;;;;;17.50;3.80;;;8.90;99.90;;;;;;5087844;28;20052;-46
2023/12/23 08:39:37;;;;;;;18.05;4.13;;;8.90;99.90;;;;;;5089890;28;20040;-44
2023/12/23 08:42:03;;;;;;;14.80;3.65;;;8.90;99.90;;;;;;5086013;28;20083;-45
2023/12/23 08:44:28;;;;;;;20.08;4.30;;;8.90;99.90;;;;;;5082573;28;20040;-46
2023/12/23 08:46:54;;;;;;;19.17;3.92;;;8.90;99.90;;;;;;5082838;28;20035;-47
2023/12/23 08:49:19;;;;;;;16.60;3.42;;;9.00;99.90;;;;;;5062933;28;20079;-46
2023/12/23 08:51:45;;;;;;;17.33;3.65;;;8.90;99.90;;;;;;5086399;28;20032;-46
2023/12/23 08:54:12;;;;;;;19.35;3.80;;;9.00;99.90;;;;;;5086663;28;20408;-47
2023/12/23 08:56:38;;;;;;;20.00;4.25;;;9.10;99.90;;;;;;5087302;28;20040;-46
2023/12/23 08:59:03;;;;;;;21.80;3.75;;;9.00;99.90;;;;;;5079911;28;20504;-49
2023/12/23 09:01:31;;;;;;;24.67;3.92;;;9.10;99.90;;;;;;5088449;28;20040;-46
2023/12/23 09:03:56;;;;;;;25.67;4.57;;;9.00;99.90;;;;;;5088516;28;20048;-47
2023/12/23 09:06:23;;;;;;;28.38;4.30;;;9.10;99.90;;;;;;5087160;28;20285;-48
2023/12/23 09:08:51;;;;;;;19.75;3.35;;;9.10;99.90;;;;;;5086628;28;20044;-46
2023/12/23 09:11:16;;;;;;;21.88;4.60;;;9.10;99.90;;;;;;5088422;28;20052;-50
2023/12/23 09:13:42;;;;;;;26.42;4.38;;;9.10;99.90;;;;;;5088810;28;20819;-46
2023/12/23 09:16:07;;;;;;;21.02;4.32;;;9.10;99.90;;;;;;5086324;28;20056;-47
2023/12/23 09:18:33;;;;;;;24.70;3.95;;;9.10;99.90;;;;;;5086882;28;20036;-49
2023/12/23 09:20:59;;;;;;;30.88;4.68;;;9.10;99.90;;;;;;5090464;28;20478;-46
2023/12/23 09:23:24;;;;;;;24.58;4.07;;;9.00;99.90;;;;;;5086738;28;20138;-46
2023/12/23 09:25:51;;;;;;;24.05;3.80;;;9.00;99.90;;;;;;5086219;28;20488;-47
2023/12/23 09:28:17;;;;;;;17.08;3.85;;;9.10;99.90;;;;;;5087256;28;20158;-46
2023/12/23 09:30:43;;;;;;;24.35;4.15;;;9.00;99.90;;;;;;5089011;28;20040;-46
2023/12/23 09:33:10;;;;;;;29.35;4.35;;;9.00;99.90;;;;;;5075410;28;20473;-47
2023/12/23 09:35:35;;;;;;;22.85;4.40;;;9.00;99.90;;;;;;5087572;28;20052;-45
2023/12/23 09:38:01;;;;;;;31.98;3.95;;;9.00;99.90;;;;;;5091979;28;20040;-46
2023/12/23 09:40:27;;;;;;;22.40;4.07;;;9.00;99.90;;;;;;5091894;28;20040;-45
2023/12/23 09:42:53;;;;;;;21.42;3.53;;;9.00;99.90;;;;;;5092562;28;20048;-47
2023/12/23 09:45:19;;;;;;;23.48;3.85;;;9.00;99.90;;;;;;5091032;28;20051;-47
2023/12/23 09:47:45;;;;;;;18.58;3.83;;;8.90;99.90;;;;;;5090343;28;20040;-49
2023/12/23 09:50:11;;;;;;;19.88;3.83;;;8.90;99.90;;;;;;5092033;28;20081;-47
2023/12/23 09:52:36;;;;;;;23.95;4.00;;;9.00;99.90;;;;;;5074725;28;20485;-46
2023/12/23 09:55:05;;;;;;;16.73;3.53;;;8.90;99.90;;;;;;5088290;28;20040;-47
2023/12/23 09:57:31;;;;;;;25.05;3.75;;;8.90;99.90;;;;;;5086989;28;20048;-48
2023/12/23 09:59:58;;;;;;;23.55;3.63;;;9.00;99.90;;;;;;5089853;28;20123;-46
2023/12/23 10:02:23;;;;;;;19.08;3.40;;;9.00;99.90;;;;;;5090296;28;20486;-47
2023/12/23 10:04:49;;;;;;;19.58;3.45;;;9.00;99.90;;;;;;5089664;28;20028;-46
2023/12/23 10:07:15;;;;;;;22.55;3.70;;;9.00;99.90;;;;;;5090955;28;20043;-48
2023/12/23 10:09:41;;;;;;;18.50;3.83;;;9.00;99.90;;;;;;5087625;28;20040;-46
2023/12/23 10:12:07;;;;;;;18.80;3.30;;;9.00;99.90;;;;;;5090762;28;20078;-46
2023/12/23 10:14:33;;;;;;;19.88;3.63;;;9.00;99.90;;;;;;5086549;28;20115;-47
2023/12/23 10:16:58;;;;;;;17.95;3.85;;;9.10;99.90;;;;;;5087512;28;20119;-46
2023/12/23 10:19:24;;;;;;;21.75;3.22;;;9.10;99.90;;;;;;5091245;28;20028;-47
2023/12/23 10:21:50;;;;;;;22.95;3.83;;;9.00;99.90;;;;;;5089353;28;20456;-46
2023/12/23 10:24:16;;;;;;;24.98;3.53;;;9.10;99.90;;;;;;5088835;28;20047;-45
2023/12/23 10:26:42;;;;;;;20.67;2.90;;;9.00;99.90;;;;;;5090566;28;20036;-47
2023/12/23 10:29:09;;;;;;;17.27;3.42;;;9.00;99.90;;;;;;5087203;28;20036;-47
2023/12/23 10:31:37;;;;;;;23.00;3.60;;;9.00;99.90;;;;;;5091077;28;20040;-46
2023/12/23 10:34:08;;;;;;;18.63;3.40;;;9.00;99.90;;;;;;5088743;28;20333;-46
2023/12/23 10:36:35;;;;;;;18.17;3.50;;;9.00;99.90;;;;;;5087313;28;20123;-45
2023/12/23 10:39:02;;;;;;;24.77;4.25;;;9.00;99.90;;;;;;5089649;28;20405;-47
2023/12/23 10:42:02;;;;;;;19.77;3.67;;;9.00;99.90;;;;;;5088578;28;20127;-45
2023/12/23 10:44:29;;;;;;;26.38;4.07;;;9.00;99.90;;;;;;5074230;28;20427;-45
2023/12/23 10:46:55;;;;;;;18.35;3.30;;;9.00;99.90;;;;;;5070087;28;20036;-46
2023/12/23 10:49:23;;;;;;;20.52;3.00;;;9.00;99.90;;;;;;5087439;28;20044;-47
2023/12/23 10:51:50;;;;;;;19.25;3.63;;;9.00;99.90;;;;;;5087934;28;20379;-44
2023/12/23 10:54:17;;;;;;;27.75;3.85;;;9.00;99.90;;;;;;5088985;28;20122;-44
2023/12/23 10:56:45;;;;;;;21.58;3.63;;;9.00;99.90;;;;;;5080222;28;20044;-44
2023/12/23 10:59:10;;;;;;;;;;;9.10;99.90;;;;;;5083958;28;20052;-44
2023/12/23 11:01:37;;;;;;;21.05;3.47;;;9.00;99.90;;;;;;5086949;28;20289;-43
2023/12/23 11:04:02;;;;;;;15.32;3.30;;;9.00;99.90;;;;;;5082401;28;20443;-45
2023/12/23 11:06:33;;;;;;;21.38;3.90;;;9.10;99.90;;;;;;5087246;28;20036;-44
2023/12/23 11:09:01;;;;;;;21.67;3.78;;;9.00;99.90;;;;;;5077313;28;20044;-45
2023/12/23 11:11:29;;;;;;;18.73;3.20;;;9.10;99.90;;;;;;5086678;28;20093;-45
2023/12/23 11:13:55;;;;;;;21.15;3.58;;;9.10;99.90;;;;;;5089336;28;20055;-43
2023/12/23 11:16:20;;;;;;;21.88;3.65;;;9.10;99.90;;;;;;5091192;28;20044;-44
2023/12/23 11:18:46;;;;;;;22.77;4.20;;;9.10;99.90;;;;;;5070055;28;20572;-44
2023/12/23 11:21:18;;;;;;;19.73;3.42;;;9.10;99.90;;;;;;5088235;28;20032;-45
2023/12/23 11:23:47;;;;;;;16.92;3.10;;;9.10;99.90;;;;;;5088825;28;20142;-45
2023/12/23 11:26:37;;;;;;;18.85;3.47;;;9.10;99.90;;;;;;5089926;28;20063;-46
2023/12/23 11:29:14;;;;;;;15.05;3.17;;;9.10;99.90;;;;;;5087394;28;20444;-46
2023/12/23 11:31:40;;;;;;;24.90;3.38;;;9.10;99.90;;;;;;5087697;28;20127;-46
2023/12/23 11:34:17;;;;;;;22.65;3.75;;;9.10;99.90;;;;;;5087360;28;20123;-45
2023/12/23 11:36:44;;;;;;;19.02;3.05;;;9.20;99.90;;;;;;5085886;28;20039;-43
2023/12/23 11:39:13;;;;;;;18.45;3.08;;;9.20;99.90;;;;;;5088276;28;20123;-46
2023/12/23 11:41:43;;;;;;;18.75;3.10;;;9.20;99.90;;;;;;5087534;28;20052;-43
2023/12/23 11:44:11;;;;;;;17.58;3.05;;;9.20;99.90;;;;;;5070258;28;20131;-44
2023/12/23 11:46:39;;;;;;;19.77;3.05;;;9.20;99.90;;;;;;5081477;28;20037;-44
2023/12/23 11:49:08;;;;;;;16.60;3.33;;;9.30;99.90;;;;;;5070158;28;20083;-45
2023/12/23 11:51:34;;;;;;;27.75;4.00;;;9.30;99.90;;;;;;5087085;28;20037;-45
2023/12/23 11:54:01;;;;;;;19.83;3.30;;;9.30;99.90;;;;;;5082730;28;20062;-45
2023/12/23 11:56:27;;;;;;;22.55;4.00;;;9.30;99.90;;;;;;5084852;28;20120;-45
2023/12/23 11:58:53;;;;;;;21.83;3.63;;;9.30;99.90;;;;;;5085814;28;20036;-47
2023/12/23 12:01:19;;;;;;;24.85;3.90;;;9.30;99.90;;;;;;5090045;28;20055;-45
2023/12/23 12:03:47;;;;;;;17.83;3.53;;;9.40;99.90;;;;;;5067552;28;20032;-45
2023/12/23 12:06:13;;;;;;;25.30;3.53;;;9.40;99.90;;;;;;5086154;28;20039;-44
2023/12/23 12:08:38;;;;;;;24.08;3.92;;;9.40;99.90;;;;;;5086699;28;20486;-47
2023/12/23 12:11:04;;;;;;;28.15;4.20;;;9.40;99.90;;;;;;5085677;28;20051;-46
2023/12/23 12:13:30;;;;;;;19.67;3.78;;;9.50;99.90;;;;;;5083210;28;20441;-46
2023/12/23 12:15:56;;;;;;;18.83;3.78;;;9.50;99.90;;;;;;5088402;28;20135;-45
2023/12/23 12:18:22;;;;;;;19.92;3.50;;;9.80;99.90;;;;;;5088932;28;20478;-45
2023/12/23 12:20:47;;;;;;;14.93;3.22;;;9.80;99.90;;;;;;5087209;28;20036;-47
2023/12/23 12:23:13;;;;;;;16.88;3.25;;;9.80;99.90;;;;;;5088388;28;20070;-45
2023/12/23 12:25:39;;;;;;;16.10;3.17;;;9.70;99.90;;;;;;5089744;28;20043;-45
2023/12/23 12:28:05;;;;;;;18.17;3.17;;;9.80;99.90;;;;;;5088969;28;20032;-44
2023/12/23 12:30:31;;;;;;;19.50;3.85;;;9.80;99.90;;;;;;5090208;28;20044;-44
2023/12/23 12:32:59;;;;;;;19.88;3.28;;;9.70;99.90;;;;;;5088587;28;20385;-45
2023/12/23 12:35:25;;;;;;;16.83;3.92;;;9.60;99.90;;;;;;5087225;28;20052;-45
2023/12/23 12:37:51;;;;;;;24.05;3.95;;;9.70;99.90;;;;;;5091852;28;20355;-44
2023/12/23 12:40:17;;;;;;;23.63;3.80;;;9.70;99.90;;;;;;5089221;28;20058;-45
2023/12/23 12:42:46;;;;;;;14.38;3.10;;;9.70;99.90;;;;;;5088870;28;20036;-45
2023/12/23 12:45:14;;;;;;;17.25;2.60;;;9.70;99.90;;;;;;5086133;28;20518;-45